createdAt,value
2022-08-17T00:00:34.701Z,0.02
2022-08-17T00:03:18.610Z,0.31
2022-08-17T00:06:18.609Z,0.36
2022-08-17T00:09:19.417Z,0.28
2022-08-17T00:12:42.488Z,0.42
2022-08-17T00:15:18.583Z,0.36
2022-08-17T00:18:57.589Z,0.47
2022-08-17T00:21:20.767Z,0.39
2022-08-17T00:24:18.645Z,0.22
2022-08-17T00:27:18.622Z,0.21
2022-08-17T00:30:18.653Z,0.13
2022-08-17T00:33:18.603Z,0.12
2022-08-17T00:36:18.624Z,0.23
2022-08-17T00:39:18.644Z,0.32
2022-08-17T00:42:18.617Z,0.58
2022-08-17T00:45:18.666Z,0.47
2022-08-17T00:48:27.193Z,0.21
2022-08-17T00:51:18.638Z,0.12
2022-08-17T00:54:18.633Z,0.24
2022-08-17T00:57:18.686Z,0.29
2022-08-17T01:00:18.673Z,0.38
2022-08-17T01:03:18.631Z,0.23
2022-08-17T01:06:18.662Z,0.21
2022-08-17T01:09:18.653Z,0.09
2022-08-17T01:12:18.682Z,0.3
2022-08-17T01:15:18.628Z,0.29
2022-08-17T01:18:18.644Z,0.19
2022-08-17T01:21:18.681Z,0.55
2022-08-17T01:24:18.713Z,0.41
2022-08-17T01:27:18.704Z,0.22
2022-08-17T01:30:54.249Z,0.09
2022-08-17T01:33:18.715Z,0.14
2022-08-17T01:36:18.670Z,0.22
2022-08-17T01:39:18.685Z,0.04
2022-08-17T01:42:18.687Z,0.26
2022-08-17T01:45:18.692Z,0.1
2022-08-17T01:48:18.707Z,0.08
2022-08-17T01:51:18.704Z,0.23
2022-08-17T01:54:18.720Z,0.15
2022-08-17T01:57:18.686Z,0.21
2022-08-17T02:00:18.744Z,0.11
2022-08-17T02:03:18.678Z,0.08
2022-08-17T02:06:27.402Z,0.04
2022-08-17T02:09:18.699Z,0.01
2022-08-17T02:12:38.713Z,0.12
2022-08-17T02:15:18.735Z,0.11
2022-08-17T02:18:18.704Z,0.28
2022-08-17T02:21:18.759Z,0.23
2022-08-17T02:24:18.688Z,0.23
2022-08-17T02:27:18.709Z,0.1
2022-08-17T02:31:00.586Z,0.25
2022-08-17T02:33:18.750Z,0.1
2022-08-17T02:36:18.767Z,0.1
2022-08-17T02:39:18.732Z,0.04
2022-08-17T02:42:18.742Z,0
2022-08-17T02:45:18.721Z,0.21
2022-08-17T02:48:30.484Z,0.16
2022-08-17T02:51:18.764Z,0.09
2022-08-17T02:54:39.487Z,0
2022-08-17T02:57:18.738Z,0
2022-08-17T03:00:18.753Z,0.16
2022-08-17T03:03:18.779Z,0.26
2022-08-17T03:06:18.744Z,0.17
2022-08-17T03:09:18.793Z,0.22
2022-08-17T03:12:18.799Z,0.04
2022-08-17T03:15:18.792Z,0.08
2022-08-17T03:18:19.431Z,0.1
2022-08-17T03:21:18.749Z,0.06
2022-08-17T03:24:18.784Z,0.1
2022-08-17T03:27:18.773Z,0.13
2022-08-17T03:30:18.831Z,0.2
2022-08-17T03:33:18.852Z,0
2022-08-17T03:36:18.811Z,0
2022-08-17T03:39:18.849Z,0.09
2022-08-17T03:42:31.671Z,0.05
2022-08-17T03:45:18.810Z,0.1
2022-08-17T03:48:18.806Z,0.09
2022-08-17T03:51:18.813Z,0.02
2022-08-17T03:54:18.853Z,0.01
2022-08-17T03:57:18.810Z,0
2022-08-17T04:00:18.856Z,0.02
2022-08-17T04:03:18.810Z,0.07
2022-08-17T04:06:18.827Z,0
2022-08-17T04:09:18.837Z,0.01
2022-08-17T04:12:18.866Z,0
2022-08-17T04:15:18.851Z,0.1
2022-08-17T04:18:18.830Z,0.1
2022-08-17T04:21:18.838Z,0.16
2022-08-17T04:24:18.793Z,0.19
2022-08-17T04:27:18.849Z,0.2
2022-08-17T04:30:18.872Z,0.19
2022-08-17T04:33:18.834Z,0.22
2022-08-17T04:36:18.835Z,0.12
2022-08-17T04:39:18.821Z,0.19
2022-08-17T04:42:18.903Z,0.16
2022-08-17T04:45:18.898Z,0.2
2022-08-17T04:48:18.820Z,0
2022-08-17T04:51:18.854Z,0.16
2022-08-17T04:54:18.894Z,0.11
2022-08-17T04:57:18.870Z,0.28
2022-08-17T05:00:18.919Z,0.3
2022-08-17T05:03:18.913Z,0.13
2022-08-17T05:06:18.874Z,0.36
2022-08-17T05:09:18.891Z,0.33
2022-08-17T05:12:18.890Z,0.34
2022-08-17T05:15:18.850Z,0.29
2022-08-17T05:18:18.861Z,0.3
2022-08-17T05:21:18.914Z,0.31
2022-08-17T05:24:38.815Z,0.29
2022-08-17T05:27:19.339Z,0.43
2022-08-17T05:30:18.885Z,0.32
2022-08-17T05:33:18.921Z,0.4
2022-08-17T05:36:37.680Z,0.19
2022-08-17T05:39:18.919Z,0.37
2022-08-17T05:42:18.924Z,0.21
2022-08-17T05:45:19.023Z,0.14
2022-08-17T05:48:18.895Z,0.02
2022-08-17T05:51:18.950Z,0
2022-08-17T05:54:18.891Z,0.19
2022-08-17T05:57:20.915Z,0.13
2022-08-17T06:00:19.266Z,0.13
2022-08-17T06:03:18.934Z,0.05
2022-08-17T06:06:18.916Z,0.07
2022-08-17T06:09:24.886Z,0.04
2022-08-17T06:12:19.960Z,0.1
2022-08-17T06:15:18.942Z,0.01
2022-08-17T06:18:19.258Z,0.03
2022-08-17T06:21:18.909Z,0.25
2022-08-17T06:24:18.951Z,0.55
2022-08-17T06:27:18.978Z,0.53
2022-08-17T06:30:18.952Z,0.53
2022-08-17T06:33:18.970Z,0.47
2022-08-17T06:36:18.955Z,0.41
2022-08-17T06:39:18.936Z,0.28
2022-08-17T06:42:54.200Z,0.58
2022-08-17T06:45:18.961Z,0.77
2022-08-17T06:48:18.952Z,0.95
2022-08-17T06:51:18.986Z,0.76
2022-08-17T06:54:18.964Z,0.71
2022-08-17T06:57:19.005Z,0.67
2022-08-17T07:00:18.980Z,0.74
2022-08-17T07:03:18.971Z,0.75
2022-08-17T07:06:18.982Z,0.57
2022-08-17T07:09:18.979Z,0.79
2022-08-17T07:12:19.024Z,0.69
2022-08-17T07:15:18.995Z,0.74
2022-08-17T07:18:18.959Z,0.84
2022-08-17T07:21:21.770Z,0.75
2022-08-17T07:24:28.114Z,0.84
2022-08-17T07:27:18.958Z,0.82
2022-08-17T07:30:19.014Z,0.93
2022-08-17T07:33:18.995Z,0.98
2022-08-17T07:36:19.035Z,0.76
2022-08-17T07:39:19.020Z,0.6
2022-08-17T07:42:19.041Z,0.61
2022-08-17T07:45:18.989Z,0.71
2022-08-17T07:48:19.039Z,0.91
2022-08-17T07:51:18.987Z,0.91
2022-08-17T07:54:19.092Z,0.76
2022-08-17T07:57:19.041Z,0.88
2022-08-17T08:00:19.062Z,0.98
2022-08-17T08:03:19.047Z,0.69
2022-08-17T08:06:19.049Z,0.83
2022-08-17T08:09:19.056Z,0.93
2022-08-17T08:12:19.016Z,1.12
2022-08-17T08:15:19.147Z,0.73
2022-08-17T08:18:19.038Z,0.91
2022-08-17T08:21:19.081Z,0.72
2022-08-17T08:24:19.076Z,0.84
2022-08-17T08:27:19.030Z,0.88
2022-08-17T08:30:19.046Z,0.57
2022-08-17T08:33:19.071Z,0.66
2022-08-17T08:36:57.169Z,0.98
2022-08-17T08:39:19.072Z,0.64
2022-08-17T08:42:19.076Z,0.69
2022-08-17T08:45:19.087Z,0.77
2022-08-17T08:48:22.812Z,0.65
2022-08-17T08:51:19.081Z,0.69
2022-08-17T08:54:20.311Z,0.73
2022-08-17T08:57:25.343Z,0.64
2022-08-17T09:00:19.196Z,0.67
2022-08-17T09:03:19.096Z,0.49
2022-08-17T09:06:32.515Z,0.71
2022-08-17T09:09:19.113Z,0.52
2022-08-17T09:12:19.101Z,0.73
2022-08-17T09:15:19.129Z,0.77
2022-08-17T09:18:59.448Z,0.34
2022-08-17T09:21:19.087Z,0.41
2022-08-17T09:24:20.646Z,0.31
2022-08-17T09:27:19.105Z,0.57
2022-08-17T09:30:19.142Z,0.43
2022-08-17T09:33:19.222Z,0.31
2022-08-17T09:36:19.115Z,0.36
2022-08-17T09:39:19.155Z,0.9
2022-08-17T09:42:19.197Z,0.35
2022-08-17T09:45:19.100Z,0.37
2022-08-17T09:48:19.182Z,0.51
2022-08-17T09:51:19.147Z,0.47
2022-08-17T09:54:37.875Z,0.25
2022-08-17T09:57:29.589Z,0.37
2022-08-17T10:00:19.141Z,0.59
2022-08-17T10:03:19.112Z,0.45
2022-08-17T10:06:22.085Z,0.26
2022-08-17T10:09:19.182Z,0.34
2022-08-17T10:12:19.130Z,0.41
2022-08-17T10:15:19.167Z,0.43
2022-08-17T10:18:19.131Z,0.17
2022-08-17T10:21:19.166Z,0.4
2022-08-17T10:24:19.152Z,0.5
2022-08-17T10:27:19.156Z,0.37
2022-08-17T10:30:19.170Z,0.62
2022-08-17T10:33:19.125Z,0.43
2022-08-17T10:36:19.170Z,0.64
2022-08-17T10:39:19.164Z,0.42
2022-08-17T10:42:30.243Z,0.47
2022-08-17T10:45:19.173Z,0.29
2022-08-17T10:48:19.194Z,0.31
2022-08-17T10:51:19.155Z,0.39
2022-08-17T10:54:19.179Z,0.34
2022-08-17T10:57:19.190Z,0.31
2022-08-17T11:00:19.574Z,0.51
2022-08-17T11:03:19.201Z,0.62
2022-08-17T11:06:19.179Z,0.86
2022-08-17T11:09:19.204Z,0.54
2022-08-17T11:12:19.225Z,1.17
2022-08-17T11:15:19.187Z,0.89
2022-08-17T11:18:19.220Z,0.57
2022-08-17T11:21:19.185Z,0.73
2022-08-17T11:24:19.232Z,1.06
2022-08-17T11:27:19.209Z,0.63
2022-08-17T11:30:19.194Z,0.64
2022-08-17T11:33:19.234Z,1
2022-08-17T11:36:19.250Z,0.7
2022-08-17T11:39:19.218Z,0.4
2022-08-17T11:42:19.179Z,0.34
2022-08-17T11:45:19.550Z,0.61
2022-08-17T11:48:34.651Z,0.34
2022-08-17T11:51:19.215Z,0.98
2022-08-17T11:54:32.640Z,1.4
2022-08-17T11:57:19.230Z,1.03
2022-08-17T12:00:19.249Z,1.57
2022-08-17T12:03:19.256Z,1.34
2022-08-17T12:06:19.255Z,1.3
2022-08-17T12:09:19.269Z,1.21
2022-08-17T12:12:19.231Z,1.58
2022-08-17T12:15:19.266Z,1.19
2022-08-17T12:18:19.291Z,1.25
2022-08-17T12:21:19.233Z,1.42
2022-08-17T12:24:19.437Z,1.5
2022-08-17T12:27:19.264Z,1.51
2022-08-17T12:30:19.247Z,1.73
2022-08-17T12:33:25.169Z,1.32
2022-08-17T12:36:19.276Z,1.76
2022-08-17T12:39:21.162Z,1.81
2022-08-17T12:42:19.294Z,1.76
2022-08-17T12:45:19.269Z,1.76
2022-08-17T12:48:19.296Z,1.43
2022-08-17T12:51:19.271Z,1.75
2022-08-17T12:54:19.298Z,1.61
2022-08-17T12:57:19.294Z,1.4
2022-08-17T13:00:19.268Z,1.51
2022-08-17T13:03:19.326Z,1.29
2022-08-17T13:06:19.269Z,1.19
2022-08-17T13:09:19.380Z,1.47
2022-08-17T13:12:19.311Z,1.03
2022-08-17T13:15:19.328Z,1.23
2022-08-17T13:18:19.311Z,1.26
2022-08-17T13:21:19.328Z,2.22
2022-08-17T13:24:19.306Z,1.02
2022-08-17T13:27:19.307Z,1.01
2022-08-17T13:30:19.331Z,1.01
2022-08-17T13:33:19.385Z,1.23
2022-08-17T13:36:20.018Z,1.04
2022-08-17T13:39:19.398Z,0.94
2022-08-17T13:42:22.338Z,1.56
2022-08-17T13:45:32.299Z,1.45
2022-08-17T13:48:19.341Z,1.17
2022-08-17T13:51:19.344Z,0.97
2022-08-17T13:54:19.390Z,0.53
2022-08-17T13:57:19.321Z,1.33
2022-08-17T14:00:19.354Z,1.58
2022-08-17T14:03:19.356Z,0.54
2022-08-17T14:06:22.132Z,1.2
2022-08-17T14:09:19.322Z,0.7
2022-08-17T14:12:19.429Z,0.79
2022-08-17T14:15:19.351Z,1.03
2022-08-17T14:18:34.347Z,1.12
2022-08-17T14:21:19.355Z,0.94
2022-08-17T14:24:19.377Z,0.73
2022-08-17T14:27:19.399Z,0.88
2022-08-17T14:30:19.365Z,0.84
2022-08-17T14:33:19.425Z,0.7
2022-08-17T14:36:19.350Z,0.71
2022-08-17T14:39:19.386Z,0.94
2022-08-17T14:42:19.393Z,1.03
2022-08-17T14:45:27.174Z,1.33
2022-08-17T14:48:19.370Z,1.27
2022-08-17T14:51:19.410Z,0.78
2022-08-17T14:54:32.674Z,1.27
2022-08-17T14:57:23.673Z,0.5
2022-08-17T15:00:19.402Z,0.81
2022-08-17T15:03:19.412Z,0.9
2022-08-17T15:06:19.448Z,0.86
2022-08-17T15:09:19.455Z,0.97
2022-08-17T15:12:19.396Z,0.75
2022-08-17T15:15:19.426Z,0.77
2022-08-17T15:18:19.417Z,0.96
2022-08-17T15:21:19.418Z,1.08
2022-08-17T15:24:19.436Z,0.94
2022-08-17T15:27:25.761Z,0.82
2022-08-17T15:30:19.406Z,0.84
2022-08-17T15:33:19.446Z,1.24
2022-08-17T15:36:19.502Z,1.1
2022-08-17T15:39:19.532Z,1.25
2022-08-17T15:42:19.455Z,0.66
2022-08-17T15:45:19.451Z,0.98
2022-08-17T15:48:19.436Z,0.81
2022-08-17T15:51:19.461Z,0.93
2022-08-17T15:54:22.640Z,0.89
2022-08-17T15:57:19.456Z,0.8
2022-08-17T16:00:19.451Z,0.71
2022-08-17T16:03:46.498Z,0.92
2022-08-17T16:06:19.475Z,0.63
2022-08-17T16:09:19.520Z,0.94
2022-08-17T16:12:19.473Z,1.04
2022-08-17T16:15:19.541Z,0.66
2022-08-17T16:18:19.457Z,1.08
2022-08-17T16:21:19.495Z,0.57
2022-08-17T16:24:19.467Z,0.53
2022-08-17T16:27:19.508Z,0.41
2022-08-17T16:30:19.502Z,0.78
2022-08-17T16:33:19.491Z,1.03
2022-08-17T16:36:19.495Z,0.96
2022-08-17T16:39:19.506Z,0.6
2022-08-17T16:42:19.520Z,0.37
2022-08-17T16:45:19.471Z,0.27
2022-08-17T16:48:19.502Z,0.13
2022-08-17T16:51:19.485Z,0.18
2022-08-17T16:54:19.525Z,0.59
2022-08-17T16:57:19.487Z,0.45
2022-08-17T17:00:19.550Z,0.44
2022-08-17T17:03:20.484Z,0.23
2022-08-17T17:06:19.522Z,0.34
2022-08-17T17:09:19.494Z,0.24
2022-08-17T17:12:19.535Z,0.31
2022-08-17T17:15:22.323Z,0.51
2022-08-17T17:18:19.557Z,0.39
2022-08-17T17:21:19.521Z,0.38
2022-08-17T17:24:19.579Z,0.37
2022-08-17T17:27:19.548Z,0.64
2022-08-17T17:30:19.620Z,0.55
2022-08-17T17:33:19.564Z,0.37
2022-08-17T17:36:19.519Z,0.4
2022-08-17T17:39:19.561Z,0.26
2022-08-17T17:42:19.891Z,0.24
2022-08-17T17:45:19.574Z,0.4
2022-08-17T17:48:19.573Z,0.19
2022-08-17T17:51:35.119Z,0.33
2022-08-17T17:54:19.566Z,0.36
2022-08-17T17:57:19.541Z,0.21
2022-08-17T18:00:19.587Z,0.07
2022-08-17T18:03:19.556Z,0.1
2022-08-17T18:06:19.988Z,0.28
2022-08-17T18:09:19.687Z,0.16
2022-08-17T18:12:19.576Z,0.01
2022-08-17T18:15:19.773Z,0
2022-08-17T18:18:19.597Z,0
2022-08-17T18:21:19.568Z,0
2022-08-17T18:24:19.613Z,0
2022-08-17T18:27:22.293Z,0
2022-08-17T18:30:19.581Z,0.02
2022-08-17T18:33:19.603Z,0
2022-08-17T18:36:19.616Z,0.03
2022-08-17T18:39:19.597Z,0.15
2022-08-17T18:42:19.644Z,0.11
2022-08-17T18:45:19.611Z,0.09
2022-08-17T18:48:19.630Z,0.09
2022-08-17T18:51:19.650Z,0.04
2022-08-17T18:54:19.626Z,0
2022-08-17T18:57:19.626Z,0.03
2022-08-17T19:00:19.624Z,0
2022-08-17T19:03:19.712Z,0.09
2022-08-17T19:06:19.606Z,0.15
2022-08-17T19:09:19.644Z,0
2022-08-17T19:12:21.606Z,0
2022-08-17T19:15:19.642Z,0
2022-08-17T19:18:19.648Z,0
2022-08-17T19:21:19.656Z,0.01
2022-08-17T19:24:19.842Z,0.12
2022-08-17T19:27:19.656Z,0.11
2022-08-17T19:30:19.678Z,0.02
2022-08-17T19:33:19.678Z,0.06
2022-08-17T19:36:19.776Z,0.03
2022-08-17T19:39:19.670Z,0.03
2022-08-17T19:42:19.647Z,0.04
2022-08-17T19:45:19.664Z,0
2022-08-17T19:48:19.938Z,0
2022-08-17T19:51:19.708Z,0.04
2022-08-17T19:54:19.726Z,0.07
2022-08-17T19:57:19.723Z,0
2022-08-17T20:00:19.707Z,0.05
2022-08-17T20:03:19.662Z,0.04
2022-08-17T20:06:19.773Z,0.05
2022-08-17T20:09:19.662Z,0.08
2022-08-17T20:12:19.693Z,0.21
2022-08-17T20:15:19.680Z,0.06
2022-08-17T20:18:19.715Z,0.06
2022-08-17T20:21:20.157Z,0.07
2022-08-17T20:24:19.682Z,0.22
2022-08-17T20:27:20.027Z,0.15
2022-08-17T20:30:19.702Z,0.11
2022-08-17T20:33:19.751Z,0.08
2022-08-17T20:36:19.740Z,0.09
2022-08-17T20:39:22.252Z,0.41
2022-08-17T20:42:19.704Z,0.29
2022-08-17T20:45:19.717Z,0.28
2022-08-17T20:48:36.692Z,0.26
2022-08-17T20:51:19.743Z,0.25
2022-08-17T20:54:19.701Z,0.27
2022-08-17T20:57:19.735Z,0.36
2022-08-17T21:00:19.702Z,0.05
2022-08-17T21:03:19.762Z,0.01
2022-08-17T21:06:19.843Z,0.17
2022-08-17T21:09:19.846Z,0.25
2022-08-17T21:12:19.781Z,0.13
2022-08-17T21:15:19.761Z,0.07
2022-08-17T21:18:19.763Z,0.07
2022-08-17T21:21:19.753Z,0.19
2022-08-17T21:24:19.765Z,0.11
2022-08-17T21:27:19.771Z,0.21
2022-08-17T21:30:19.772Z,0.31
2022-08-17T21:33:20.047Z,0.23
2022-08-17T21:36:19.761Z,0.21
2022-08-17T21:39:21.401Z,0.16
2022-08-17T21:42:19.825Z,0.1
2022-08-17T21:45:19.813Z,0.09
2022-08-17T21:48:19.765Z,0.04
2022-08-17T21:51:19.787Z,0.18
2022-08-17T21:54:19.771Z,0.03
2022-08-17T21:57:19.803Z,0.44
2022-08-17T22:00:19.781Z,0.66
2022-08-17T22:03:19.786Z,1.05
2022-08-17T22:06:19.764Z,1.79
2022-08-17T22:09:19.801Z,1.23
2022-08-17T22:12:19.805Z,0.67
2022-08-17T22:15:19.849Z,0.78
2022-08-17T22:18:19.866Z,1.34
2022-08-17T22:21:19.785Z,0.93
2022-08-17T22:24:19.832Z,0.84
2022-08-17T22:27:19.843Z,1.03
2022-08-17T22:30:19.802Z,0.93
2022-08-17T22:33:19.869Z,0.81
2022-08-17T22:36:19.830Z,0.84
2022-08-17T22:39:19.830Z,0.72
2022-08-17T22:42:19.853Z,0.57
2022-08-17T22:45:19.842Z,0.66
2022-08-17T22:48:19.798Z,0.88
2022-08-17T22:51:19.863Z,0.68
2022-08-17T22:54:19.849Z,0.48
2022-08-17T22:57:19.825Z,0.63
2022-08-17T23:00:19.853Z,0.57
2022-08-17T23:03:19.886Z,0.68
2022-08-17T23:06:19.863Z,0.91
2022-08-17T23:09:19.823Z,0.69
2022-08-17T23:12:19.884Z,0.53
2022-08-17T23:15:19.885Z,0.63
2022-08-17T23:18:19.865Z,0.62
2022-08-17T23:21:26.470Z,0.56
2022-08-17T23:24:19.848Z,0.59
2022-08-17T23:27:19.894Z,0.51
2022-08-17T23:30:19.854Z,0.65
2022-08-17T23:33:19.881Z,0.64
2022-08-17T23:36:19.862Z,0.57
2022-08-17T23:39:24.804Z,0.65
2022-08-17T23:42:19.843Z,0.45
2022-08-17T23:45:19.898Z,0.47
2022-08-17T23:48:27.846Z,0.38
2022-08-17T23:51:19.896Z,0.46
2022-08-17T23:54:19.859Z,0.54
2022-08-17T23:57:19.936Z,0.64
